Aeroporto :
LOGIN :

Iscrizione | Disclaimer

   EN    FR    IT 

 










Sommario :    VFR   VFR Marginale   IFR   IFR Intensivo   IFR Molto Intensivo
Visibilità : 
Base nubi : 
>= 8 km
>= 3000ft
5 / 8 km
1000 / 3000 ft
1500m / 5 km
500 / 1000 ft
800 / 1500m
200 / 500 ft
< 800m
< 200 ft
Simboli :   Temporali  Nebbia  Neve Forte  Precipitazioni Forti  Vento > 20 kt
SIGMETs :   Varie  Temporali  Ghiacco  Turbolenza  Onda orograficha  Ceneri Vulcaniche






- Altitudine del aeroporto : 614 ft
- Codice IATA : CRL


EBCI - Charleroi

ULTIMO METAR :
  • 172150Z 24018KT 9999 SCT019 BKN030 06/03 Q1018 TEMPO 24016G32KT 4000 SHRA

METARs OBSOLETI :
  • 172120Z 24019KT 9999 SCT019 BKN030 07/03 Q1018 TEMPO 24016G32KT 4000 SHRA
  • 172050Z 24018KT 9999 -SHRA SCT019 BKN030 06/04 Q1018 TEMPO 24016G32KT 4000 SHRA
  • 172020Z 24021KT 9999 SCT021 BKN030 07/03 Q1017 TEMPO 24016G32KT 4000 SHRA
  • 171950Z 24017KT 9999 SCT022 BKN030 07/04 Q1017 TEMPO 24016G32KT 4000 SHRA
  • 171920Z 24019KT 9999 SCT022 BKN030 07/04 Q1017 TEMPO 24016G32KT 4000 SHRA

TAF TAF EBCI
Valido dal 17 a 18 ore il 19 a 00 ore UTC


171712Z 1718/1824 23015G25KT 9999 FEW020
PROB40
TEMPO 1718/1803 25020G35KT 3000 SHRA SHRAGS BKN012CB
TEMPO 1816/1824 4000 SHRA
PROB40
TEMPO 1822/1824 3000 RA SHRA BKN012 SCT016CB



MetMap, La meteo Aeronautica in un colpo d'occhio ! - Copyright ORBIFLY Dicembre 2007 - Disclaimer

ORBIFLY MET'MAP TEAM :

Programmazione e sviluppo : Alexandra Zaïnal
Concezione : Baudouin d'Aumeries
Aiuto per la programmazione : Marc-Olivier Méhu
Supporto tecnico e logistico : Manuel Goepfert
Aiuto per la traduzione : Arnaldo La Scala

Contatto : metmap@orbifly.com




FONTI E CREDITI :

   NOAA